Ikermit

KL  EN  DA
ASIAQ
Weather Now GREENLAND SURVEY
Updated [WGT/WGST] Temperature [°C] Wind [m/s] Air pressure [hPa] Relative humidity [%] Precipitation [mm]
Present Wind chill Speed Max
30.11 17:00-5,10,0n/an/a98896n/a
30.11 16:00-5,50,0n/an/a99096n/a
30.11 15:00-5,90,0n/an/a99296n/a
30.11 14:00-6,50,0n/an/a99495n/a
30.11 13:00-7,10,0n/an/a99594n/a
30.11 12:00-7,30,0n/an/a99694n/a
30.11 11:00-6,90,0n/an/a99894n/a
30.11 10:00-6,2-12,44,6 ⇓6,7100081n/a
30.11 09:00-5,7-13,37,2 ⇓8,2100173n/a
30.11 08:00-5,5-12,86,7 ⇓8,2100173n/a
30.11 07:00-5,3-12,36,2 ⇙9,3100172n/a
30.11 06:00-4,8-11,96,7 ⇙8,8100275n/a
30.11 05:00-4,8-8,82,6 ⇘4,6100265n/a
30.11 04:00-5,5-12,25,7 ⇘6,7100352n/a
30.11 03:00-5,2-12,77,2 ⇘8,8100346n/a
30.11 02:00-4,9-12,37,2 ⇘8,8100346n/a
30.11 01:00-4,6-12,48,2 ⇘10,3100442n/a
30.11 00:00-4,8-12,27,2 ⇘9,3100546n/a
29.11 23:00-4,9-13,08,8 ⇘10,3100549n/a
29.11 22:00-4,8-13,19,3 ⇘11,8100546n/a
29.11 21:00-5,0-13,69,8 ⇘12,9100548n/a
29.11 20:00-3,9-11,07,2 ⇘9,8100546n/a
29.11 19:00-3,6-11,59,3 ⇘12,4100545n/a
29.11 18:00-3,9-12,611,3 ⇘14,9100446n/a
29.11 17:00-3,9-10,86,7 ⇘9,3100447n/a
Position: (64.781944444,-40.30166666)

[Back]